createdAt,value
2023-03-05T00:01:33.188Z,99.90
2023-03-05T00:04:01.442Z,99.90
2023-03-05T00:06:31.064Z,99.90
2023-03-05T00:08:59.309Z,99.90
2023-03-05T00:11:29.925Z,99.90
2023-03-05T00:13:59.055Z,99.90
2023-03-05T00:16:29.621Z,99.90
2023-03-05T00:18:58.858Z,99.90
2023-03-05T00:21:29.236Z,99.90
2023-03-05T00:23:58.457Z,99.90
2023-03-05T00:26:28.305Z,99.90
2023-03-05T00:28:58.207Z,99.90
2023-03-05T00:31:30.300Z,99.90
2023-03-05T00:34:00.461Z,99.90
2023-03-05T00:36:29.382Z,99.90
2023-03-05T00:38:57.802Z,99.90
2023-03-05T00:41:25.801Z,99.90
2023-03-05T00:43:53.757Z,99.90
2023-03-05T00:46:21.872Z,99.90
2023-03-05T00:48:51.305Z,99.90
2023-03-05T00:51:19.714Z,99.90
2023-03-05T00:53:47.862Z,99.90
2023-03-05T00:56:15.869Z,99.90
2023-03-05T00:58:43.908Z,99.90
2023-03-05T01:01:12.923Z,99.90
2023-03-05T01:03:41.244Z,99.90
2023-03-05T01:06:12.796Z,99.90
2023-03-05T01:08:41.131Z,99.90
2023-03-05T01:11:10.374Z,99.90
2023-03-05T01:13:38.815Z,99.90
2023-03-05T01:16:07.550Z,99.90
2023-03-05T01:18:35.773Z,99.90
2023-03-05T01:21:05.425Z,99.90
2023-03-05T01:23:37.215Z,99.90
2023-03-05T01:26:06.165Z,99.90
2023-03-05T01:28:34.115Z,99.90
2023-03-05T01:31:02.242Z,99.90
2023-03-05T01:33:30.220Z,99.90
2023-03-05T01:35:58.198Z,99.90
2023-03-05T01:38:26.164Z,99.90
2023-03-05T01:40:55.471Z,99.90
2023-03-05T01:43:27.009Z,99.90
2023-03-05T01:46:38.079Z,99.90
2023-03-05T01:49:12.566Z,99.90
2023-03-05T01:51:46.726Z,99.90
2023-03-05T01:54:18.017Z,99.90
2023-03-05T01:56:49.825Z,99.90
2023-03-05T01:59:18.690Z,99.90
2023-03-05T02:01:51.925Z,99.90
2023-03-05T02:04:22.560Z,99.90
2023-03-05T02:06:50.711Z,99.90
2023-03-05T02:09:18.666Z,99.90
2023-03-05T02:11:48.066Z,99.90
2023-03-05T02:14:16.358Z,99.90
2023-03-05T02:16:44.381Z,99.90
2023-03-05T02:19:13.703Z,99.90
2023-03-05T02:21:44.853Z,99.90
2023-03-05T02:24:16.337Z,99.90
2023-03-05T02:26:45.700Z,99.90
2023-03-05T02:29:20.126Z,99.90
2023-03-05T02:31:48.119Z,99.90
2023-03-05T02:34:16.101Z,99.90
2023-03-05T02:36:45.604Z,99.90
2023-03-05T02:39:14.000Z,99.90
2023-03-05T02:41:41.993Z,99.90
2023-03-05T02:44:10.588Z,99.90
2023-03-05T02:46:38.789Z,99.90
2023-03-05T02:49:06.778Z,99.90
2023-03-05T02:51:36.986Z,99.90
2023-03-05T02:54:06.625Z,99.90
2023-03-05T02:56:34.978Z,99.90
2023-03-05T02:59:03.193Z,99.90
2023-03-05T03:01:31.286Z,99.90
2023-03-05T03:03:59.380Z,99.90
2023-03-05T03:06:27.563Z,99.90
2023-03-05T03:08:55.678Z,99.90
2023-03-05T03:11:25.165Z,99.90
2023-03-05T03:13:53.130Z,99.90
2023-03-05T03:16:21.174Z,99.90
2023-03-05T03:18:49.176Z,99.90
2023-03-05T03:21:23.498Z,99.90
2023-03-05T03:23:51.456Z,99.90
2023-03-05T03:26:20.038Z,99.90
2023-03-05T03:28:49.333Z,99.90
2023-03-05T03:31:17.682Z,99.90
2023-03-05T03:33:46.252Z,99.90
2023-03-05T03:36:14.532Z,99.90
2023-03-05T03:38:42.821Z,99.90
2023-03-05T03:41:11.110Z,99.90
2023-03-05T03:43:39.129Z,99.90
2023-03-05T03:46:09.310Z,99.90
2023-03-05T03:48:37.292Z,99.90
2023-03-05T03:51:07.337Z,99.90
2023-03-05T03:53:35.633Z,99.90
2023-03-05T03:56:04.414Z,99.90
2023-03-05T03:58:32.414Z,99.90
2023-03-05T04:01:00.670Z,99.90
2023-03-05T04:03:30.083Z,99.90
2023-03-05T04:05:58.078Z,99.90
2023-03-05T04:08:26.042Z,99.90
2023-03-05T04:10:54.024Z,99.90
2023-03-05T04:13:21.990Z,99.90
2023-03-05T04:15:50.266Z,99.90
2023-03-05T04:18:18.225Z,99.90
2023-03-05T04:20:47.593Z,99.90
2023-03-05T04:23:16.008Z,99.90
2023-03-05T04:25:44.131Z,99.90
2023-03-05T04:28:12.354Z,99.90
2023-03-05T04:30:40.478Z,99.90
2023-03-05T04:33:08.438Z,99.90
2023-03-05T04:35:36.752Z,99.90
2023-03-05T04:38:06.058Z,99.90
2023-03-05T04:40:34.649Z,99.90
2023-03-05T04:43:02.726Z,99.90
2023-03-05T04:45:30.980Z,99.90
2023-03-05T04:47:58.944Z,99.90
2023-03-05T04:50:27.352Z,99.90
2023-03-05T04:52:55.569Z,99.90
2023-03-05T04:55:24.867Z,99.90
2023-03-05T04:57:52.792Z,99.90
2023-03-05T05:00:21.667Z,99.90
2023-03-05T05:02:51.279Z,99.90
2023-03-05T05:05:21.149Z,99.90
2023-03-05T05:07:49.220Z,99.90
2023-03-05T05:10:18.140Z,99.90
2023-03-05T05:12:47.394Z,99.90
2023-03-05T05:15:15.696Z,99.90
2023-03-05T05:17:43.668Z,99.90
2023-03-05T05:20:14.233Z,99.90
2023-03-05T05:22:42.678Z,99.90
2023-03-05T05:25:11.456Z,99.90
2023-03-05T05:27:40.055Z,99.90
2023-03-05T05:30:13.116Z,99.90
2023-03-05T05:32:41.134Z,99.90
2023-03-05T05:35:11.030Z,99.90
2023-03-05T05:37:39.104Z,99.90
2023-03-05T05:40:08.484Z,99.90
2023-03-05T05:42:36.615Z,99.90
2023-03-05T05:45:05.323Z,99.90
2023-03-05T05:47:34.612Z,99.90
2023-03-05T05:50:02.601Z,99.90
2023-03-05T05:52:30.596Z,99.90
2023-03-05T05:54:58.618Z,99.90
2023-03-05T05:57:26.650Z,99.90
2023-03-05T05:59:54.645Z,99.90
2023-03-05T06:02:22.715Z,99.90
2023-03-05T06:04:52.065Z,99.90
2023-03-05T06:07:20.146Z,99.90
2023-03-05T06:09:48.436Z,99.90
2023-03-05T06:12:16.500Z,99.90
2023-03-05T06:14:44.519Z,99.90
2023-03-05T06:17:14.827Z,99.90
2023-03-05T06:19:45.596Z,99.90
2023-03-05T06:22:14.979Z,99.90
2023-03-05T06:24:43.004Z,99.90
2023-03-05T06:27:10.962Z,99.90
2023-03-05T06:29:38.906Z,99.90
2023-03-05T06:32:07.638Z,99.90
2023-03-05T06:34:35.640Z,99.90
2023-03-05T06:37:03.609Z,99.90
2023-03-05T06:39:33.565Z,99.90
2023-03-05T06:42:01.513Z,99.90
2023-03-05T06:44:29.465Z,99.90
2023-03-05T06:46:57.433Z,99.90
2023-03-05T06:49:25.461Z,99.90
2023-03-05T06:51:53.382Z,99.90
2023-03-05T06:54:21.366Z,99.90
2023-03-05T06:56:50.920Z,99.90
2023-03-05T06:59:18.987Z,99.90
2023-03-05T07:01:47.092Z,99.90
2023-03-05T07:04:16.335Z,99.90
2023-03-05T07:06:44.837Z,99.90
2023-03-05T07:09:15.839Z,99.90
2023-03-05T07:11:43.797Z,99.90
2023-03-05T07:14:13.288Z,99.90
2023-03-05T07:16:41.303Z,99.90
2023-03-05T07:19:10.942Z,99.90
2023-03-05T07:21:40.030Z,99.90
2023-03-05T07:24:09.552Z,99.90
2023-03-05T07:26:37.573Z,99.90
2023-03-05T07:29:05.564Z,99.90
2023-03-05T07:31:34.927Z,99.90
2023-03-05T07:34:04.197Z,99.90
2023-03-05T07:36:34.819Z,99.90
2023-03-05T07:39:04.703Z,99.90
2023-03-05T07:41:33.046Z,99.90
2023-03-05T07:44:01.321Z,99.90
2023-03-05T07:46:32.130Z,99.90
2023-03-05T07:49:01.493Z,99.90
2023-03-05T07:51:29.648Z,99.90
2023-03-05T07:53:58.754Z,99.90
2023-03-05T07:56:29.853Z,99.90
2023-03-05T07:58:57.964Z,99.90
2023-03-05T08:01:25.895Z,99.90
2023-03-05T08:03:54.000Z,99.90
2023-03-05T08:06:23.452Z,99.90
2023-03-05T08:08:51.550Z,99.90
2023-03-05T08:11:19.629Z,99.90
2023-03-05T08:13:47.714Z,99.90
2023-03-05T08:16:18.251Z,99.90
2023-03-05T08:18:46.377Z,99.90
2023-03-05T08:21:19.785Z,99.90
2023-03-05T08:23:49.491Z,99.90
2023-03-05T08:26:19.635Z,99.90
2023-03-05T08:28:47.666Z,99.90
2023-03-05T08:31:18.345Z,99.90
2023-03-05T08:33:46.311Z,99.90
2023-03-05T08:36:14.283Z,99.90
2023-03-05T08:38:44.444Z,99.90
2023-03-05T08:41:14.387Z,99.90
2023-03-05T08:43:42.489Z,99.90
2023-03-05T08:46:12.354Z,99.90
2023-03-05T08:48:40.524Z,99.90
2023-03-05T08:51:10.829Z,99.90
2023-03-05T08:53:38.791Z,99.90
2023-03-05T08:56:07.633Z,99.90
2023-03-05T08:58:36.966Z,99.90
2023-03-05T09:01:05.042Z,99.90
2023-03-05T09:03:33.268Z,99.90
2023-03-05T09:06:02.000Z,99.90
2023-03-05T09:08:30.345Z,99.90
2023-03-05T09:10:58.625Z,99.90
2023-03-05T09:13:26.672Z,99.90
2023-03-05T09:16:01.125Z,99.90
2023-03-05T09:18:29.212Z,99.90
2023-03-05T09:20:57.682Z,99.90
2023-03-05T09:23:25.939Z,99.90
2023-03-05T09:25:54.036Z,99.90
2023-03-05T09:28:21.984Z,99.90
2023-03-05T09:30:49.976Z,99.90
2023-03-05T09:33:19.309Z,99.90
2023-03-05T09:35:48.547Z,99.90
2023-03-05T09:38:16.563Z,99.90
2023-03-05T09:40:51.837Z,99.90
2023-03-05T09:43:31.168Z,99.90
2023-03-05T09:46:08.141Z,99.90
2023-03-05T09:48:50.815Z,99.90
2023-03-05T09:51:23.918Z,99.90
2023-03-05T09:54:01.068Z,99.90
2023-03-05T09:56:33.362Z,99.90
2023-03-05T09:59:05.212Z,99.90
2023-03-05T10:01:42.053Z,99.90
2023-03-05T10:04:16.462Z,99.90
2023-03-05T10:06:51.606Z,99.90
2023-03-05T10:09:29.818Z,99.90
2023-03-05T10:12:00.270Z,99.90
2023-03-05T10:14:30.812Z,99.90
2023-03-05T10:17:27.405Z,99.90
2023-03-05T10:20:26.005Z,99.90
2023-03-05T10:23:13.264Z,99.90
2023-03-05T10:25:53.119Z,99.90
2023-03-05T10:28:24.734Z,99.90
2023-03-05T10:31:12.474Z,99.90
2023-03-05T10:33:48.874Z,99.90
2023-03-05T10:36:38.848Z,99.90
2023-03-05T10:39:35.128Z,99.90
2023-03-05T10:42:12.212Z,99.90
2023-03-05T10:44:46.018Z,99.90
2023-03-05T10:47:22.599Z,99.90
2023-03-05T10:49:53.499Z,99.90
2023-03-05T10:52:28.200Z,99.90
2023-03-05T10:54:56.347Z,99.90
2023-03-05T10:57:25.994Z,99.90
2023-03-05T10:59:55.960Z,99.90
2023-03-05T11:02:24.917Z,99.90
2023-03-05T11:04:54.652Z,99.90
2023-03-05T11:07:38.969Z,99.90
2023-03-05T11:10:16.573Z,99.90
2023-03-05T11:12:44.997Z,99.90
2023-03-05T11:15:33.679Z,99.90
2023-03-05T11:18:17.872Z,99.90
2023-03-05T11:20:46.239Z,99.90
2023-03-05T11:23:17.485Z,99.90
2023-03-05T11:25:58.386Z,99.90
2023-03-05T11:28:33.427Z,99.90
2023-03-05T11:31:09.575Z,99.90
2023-03-05T11:33:38.573Z,99.90
2023-03-05T11:36:26.062Z,99.90
2023-03-05T11:38:59.499Z,99.90
2023-03-05T11:41:35.459Z,99.90
2023-03-05T11:44:07.341Z,99.90
2023-03-05T11:46:41.992Z,99.90
2023-03-05T11:49:15.673Z,99.90
2023-03-05T11:51:50.148Z,99.90
2023-03-05T11:54:26.103Z,99.90
2023-03-05T11:56:55.389Z,99.90
2023-03-05T11:59:28.977Z,99.90
2023-03-05T12:01:58.480Z,99.90
2023-03-05T12:04:26.713Z,99.90
2023-03-05T12:06:58.359Z,99.90
2023-03-05T12:09:37.853Z,99.90
2023-03-05T12:12:11.004Z,99.90
2023-03-05T12:14:46.510Z,99.90
2023-03-05T12:17:19.920Z,99.90
2023-03-05T12:19:56.923Z,99.90
2023-03-05T12:22:32.456Z,99.90
2023-03-05T12:25:24.480Z,99.90
2023-03-05T12:27:52.635Z,99.90
2023-03-05T12:30:56.511Z,99.90
2023-03-05T12:33:34.618Z,99.90
2023-03-05T12:36:37.561Z,99.90
2023-03-05T12:39:52.546Z,99.90
2023-03-05T12:42:47.685Z,99.90
2023-03-05T12:45:40.766Z,99.90
2023-03-05T12:48:44.411Z,99.90
2023-03-05T12:51:30.018Z,99.90
2023-03-05T12:53:58.649Z,99.90
2023-03-05T12:56:32.645Z,99.90
2023-03-05T12:59:04.211Z,99.60
2023-03-05T13:01:41.104Z,99.60
2023-03-05T13:04:16.912Z,99.60
2023-03-05T13:06:44.941Z,99.10
2023-03-05T13:09:19.491Z,98.80
2023-03-05T13:11:50.257Z,98.50
2023-03-05T13:14:30.923Z,98.30
2023-03-05T13:16:59.252Z,98.90
2023-03-05T13:19:27.696Z,98.70
2023-03-05T13:22:00.148Z,99.10
2023-03-05T13:24:29.198Z,99.40
2023-03-05T13:26:57.376Z,99.60
2023-03-05T13:29:30.378Z,99.90
2023-03-05T13:32:01.729Z,99.80
2023-03-05T13:34:44.698Z,99.90
2023-03-05T13:37:19.659Z,99.90
2023-03-05T13:39:51.577Z,99.90
2023-03-05T13:42:23.990Z,99.90
2023-03-05T13:44:57.480Z,99.90
2023-03-05T13:47:28.460Z,99.90
2023-03-05T13:49:57.695Z,99.90
2023-03-05T13:52:26.399Z,99.90
2023-03-05T13:54:54.426Z,99.90
2023-03-05T13:57:36.005Z,99.90
2023-03-05T14:00:06.530Z,99.90
2023-03-05T14:02:34.632Z,99.90
2023-03-05T14:05:02.683Z,99.90
2023-03-05T14:07:34.513Z,99.90
2023-03-05T14:10:05.521Z,99.90
2023-03-05T14:12:37.169Z,99.90
2023-03-05T14:15:21.559Z,99.90
2023-03-05T14:17:49.703Z,99.90
2023-03-05T14:20:25.173Z,99.90
2023-03-05T14:22:56.760Z,99.90
2023-03-05T14:25:33.675Z,99.90
2023-03-05T14:28:02.420Z,99.90
2023-03-05T14:30:32.608Z,99.90
2023-03-05T14:33:03.360Z,99.90
2023-03-05T14:35:32.068Z,99.90
2023-03-05T14:38:00.839Z,99.90
2023-03-05T14:40:31.545Z,99.90
2023-03-05T14:43:00.624Z,99.90
2023-03-05T14:45:32.172Z,99.80
2023-03-05T14:48:02.095Z,99.80
2023-03-05T14:50:33.188Z,99.70
2023-03-05T14:53:04.347Z,99.20
2023-03-05T14:55:33.503Z,99.20
2023-03-05T14:58:04.260Z,98.70
2023-03-05T15:00:33.724Z,97.80
2023-03-05T15:03:01.728Z,97.80
2023-03-05T15:05:29.831Z,97.50
2023-03-05T15:07:57.977Z,97.50
2023-03-05T15:10:26.876Z,97.80
2023-03-05T15:12:54.869Z,97.90
2023-03-05T15:15:24.870Z,97.80
2023-03-05T15:17:55.092Z,97.60
2023-03-05T15:20:25.666Z,97.30
2023-03-05T15:22:53.996Z,96.50
2023-03-05T15:25:23.004Z,96.80
2023-03-05T15:27:51.703Z,97.50
2023-03-05T15:30:23.869Z,97.80
2023-03-05T15:32:55.088Z,98.00
2023-03-05T15:35:25.651Z,97.90
2023-03-05T15:37:54.076Z,97.40
2023-03-05T15:40:22.603Z,97.20
2023-03-05T15:42:50.622Z,96.40
2023-03-05T15:45:18.647Z,96.20
2023-03-05T15:47:49.058Z,95.20
2023-03-05T15:50:17.019Z,94.90
2023-03-05T15:52:46.464Z,95.10
2023-03-05T15:55:14.861Z,94.90
2023-03-05T15:57:45.629Z,94.40
2023-03-05T16:00:16.055Z,94.20
2023-03-05T16:02:44.055Z,94.40
2023-03-05T16:05:12.292Z,94.20
2023-03-05T16:07:42.544Z,94.20
2023-03-05T16:10:17.499Z,94.30
2023-03-05T16:12:47.981Z,94.30
2023-03-05T16:15:18.881Z,94.10
2023-03-05T16:17:50.070Z,94.10
2023-03-05T16:20:18.692Z,94.20
2023-03-05T16:22:46.655Z,94.20
2023-03-05T16:25:16.269Z,94.20
2023-03-05T16:27:44.251Z,94.40
2023-03-05T16:30:15.031Z,94.50
2023-03-05T16:32:43.357Z,94.60
2023-03-05T16:35:12.187Z,94.60
2023-03-05T16:37:41.110Z,94.70
2023-03-05T16:40:11.068Z,94.80
2023-03-05T16:42:40.373Z,95.00
2023-03-05T16:45:09.817Z,95.00
2023-03-05T16:47:37.849Z,95.00
2023-03-05T16:50:06.763Z,95.10
2023-03-05T16:52:34.725Z,95.00
2023-03-05T16:55:02.684Z,95.10
2023-03-05T16:57:30.723Z,95.30
2023-03-05T17:00:01.471Z,95.30
2023-03-05T17:02:29.560Z,95.10
2023-03-05T17:04:57.759Z,95.10
2023-03-05T17:07:26.560Z,95.20
2023-03-05T17:09:55.572Z,95.40
2023-03-05T17:12:23.972Z,95.40
2023-03-05T17:14:52.072Z,95.60
2023-03-05T17:17:21.350Z,95.70
2023-03-05T17:19:49.738Z,95.70
2023-03-05T17:22:17.700Z,95.80
2023-03-05T17:24:47.206Z,95.70
2023-03-05T17:27:18.672Z,95.80
2023-03-05T17:29:47.009Z,95.80
2023-03-05T17:32:15.049Z,95.80
2023-03-05T17:34:44.844Z,95.80
2023-03-05T17:37:14.778Z,95.90
2023-03-05T17:39:42.672Z,95.80
2023-03-05T17:42:10.627Z,95.90
2023-03-05T17:44:38.606Z,95.90
2023-03-05T17:47:06.697Z,95.90
2023-03-05T17:49:34.673Z,95.90
2023-03-05T17:52:04.001Z,96.00
2023-03-05T17:54:32.312Z,96.10
2023-03-05T17:57:00.658Z,96.10
2023-03-05T17:59:28.750Z,96.20
2023-03-05T18:01:58.551Z,96.30
2023-03-05T18:04:26.618Z,96.40
2023-03-05T18:06:54.685Z,96.40
2023-03-05T18:09:24.053Z,96.40
2023-03-05T18:11:51.970Z,96.40
2023-03-05T18:14:19.992Z,96.40
2023-03-05T18:16:49.253Z,96.40
2023-03-05T18:19:18.563Z,96.40
2023-03-05T18:21:46.520Z,96.40
2023-03-05T18:24:14.462Z,96.50
2023-03-05T18:26:43.868Z,96.50
2023-03-05T18:29:11.791Z,96.60
2023-03-05T18:31:39.730Z,96.60
2023-03-05T18:34:07.736Z,96.60
2023-03-05T18:36:35.731Z,96.60
2023-03-05T18:39:04.201Z,96.60
2023-03-05T18:41:32.714Z,96.70
2023-03-05T18:44:07.516Z,96.80
2023-03-05T18:46:37.412Z,96.90
2023-03-05T18:49:05.369Z,96.90
2023-03-05T18:51:37.286Z,96.90
2023-03-05T18:54:05.407Z,96.90
2023-03-05T18:56:33.347Z,97.00
2023-03-05T18:59:02.817Z,97.10
2023-03-05T19:01:30.960Z,97.20
2023-03-05T19:03:59.073Z,97.20
2023-03-05T19:06:27.048Z,97.20
2023-03-05T19:09:01.368Z,97.20
2023-03-05T19:11:29.515Z,97.30
2023-03-05T19:13:58.433Z,97.30
2023-03-05T19:16:33.736Z,97.40
2023-03-05T19:19:13.128Z,97.50
2023-03-05T19:21:41.921Z,97.60
2023-03-05T19:24:10.929Z,97.70
2023-03-05T19:26:41.979Z,97.80
2023-03-05T19:29:10.319Z,97.80
2023-03-05T19:31:40.053Z,97.90
2023-03-05T19:34:08.228Z,98.00
2023-03-05T19:36:36.964Z,98.10
2023-03-05T19:39:06.030Z,98.10
2023-03-05T19:41:34.511Z,98.20
2023-03-05T19:44:02.858Z,98.30
2023-03-05T19:46:31.110Z,98.50
2023-03-05T19:49:00.724Z,98.60
2023-03-05T19:51:29.192Z,98.60
2023-03-05T19:53:57.179Z,98.70
2023-03-05T19:56:25.216Z,98.80
2023-03-05T19:58:53.275Z,99.00
2023-03-05T20:01:23.928Z,99.20
2023-03-05T20:03:55.425Z,99.30
2023-03-05T20:06:26.456Z,99.50
2023-03-05T20:08:54.515Z,99.70
2023-03-05T20:11:25.558Z,99.70
2023-03-05T20:13:55.894Z,99.90
2023-03-05T20:16:26.090Z,99.90
2023-03-05T20:18:55.361Z,99.90
2023-03-05T20:21:26.500Z,99.90
2023-03-05T20:23:56.027Z,99.90
2023-03-05T20:26:25.718Z,99.90
2023-03-05T20:28:54.460Z,99.90
2023-03-05T20:31:24.471Z,99.90
2023-03-05T20:33:52.539Z,99.90
2023-03-05T20:36:20.560Z,99.90
2023-03-05T20:38:49.905Z,99.90
2023-03-05T20:41:20.689Z,99.90
2023-03-05T20:43:49.851Z,99.90
2023-03-05T20:46:19.709Z,99.90
2023-03-05T20:48:49.435Z,99.90
2023-03-05T20:51:22.442Z,99.90
2023-03-05T20:53:53.647Z,99.90
2023-03-05T20:56:21.676Z,99.90
2023-03-05T20:58:52.203Z,99.90
2023-03-05T21:01:20.117Z,99.90
2023-03-05T21:03:48.203Z,99.90
2023-03-05T21:06:16.161Z,99.90
2023-03-05T21:08:44.692Z,99.90
2023-03-05T21:11:14.703Z,99.90
2023-03-05T21:13:44.226Z,99.90
2023-03-05T21:16:16.145Z,99.90
2023-03-05T21:18:44.157Z,99.90
2023-03-05T21:21:12.111Z,99.90
2023-03-05T21:23:40.092Z,99.90
2023-03-05T21:26:08.598Z,99.90
2023-03-05T21:28:39.810Z,99.90
2023-03-05T21:31:09.766Z,99.90
2023-03-05T21:33:38.259Z,99.90
2023-03-05T21:36:07.661Z,99.90
2023-03-05T21:38:35.681Z,99.90
2023-03-05T21:41:05.047Z,99.90
2023-03-05T21:43:33.377Z,99.90
2023-03-05T21:46:05.776Z,99.90
2023-03-05T21:48:33.769Z,99.90
2023-03-05T21:51:01.799Z,99.90
2023-03-05T21:53:29.764Z,99.90
2023-03-05T21:56:10.778Z,99.90
2023-03-05T21:58:38.720Z,99.90
2023-03-05T22:01:08.124Z,99.90
2023-03-05T22:03:37.889Z,99.90
2023-03-05T22:06:10.463Z,99.90
2023-03-05T22:08:38.502Z,99.90
2023-03-05T22:11:10.325Z,99.90
2023-03-05T22:13:38.825Z,99.90
2023-03-05T22:16:09.865Z,99.90
2023-03-05T22:18:38.058Z,99.90
2023-03-05T22:21:06.790Z,99.90
2023-03-05T22:23:35.192Z,99.90
2023-03-05T22:26:05.024Z,99.90
2023-03-05T22:28:33.965Z,99.90
2023-03-05T22:31:02.156Z,99.90
2023-03-05T22:33:31.934Z,99.90
2023-03-05T22:35:59.931Z,99.90
2023-03-05T22:38:28.062Z,99.90
2023-03-05T22:40:55.962Z,99.90
2023-03-05T22:43:23.876Z,99.90
2023-03-05T22:45:54.179Z,99.90
2023-03-05T22:48:22.092Z,99.90
2023-03-05T22:50:59.417Z,99.90
2023-03-05T22:53:27.452Z,99.90
2023-03-05T22:55:55.381Z,99.90
2023-03-05T22:58:23.346Z,99.90
2023-03-05T23:00:51.292Z,99.90
2023-03-05T23:03:19.306Z,99.90
2023-03-05T23:05:47.287Z,99.90
2023-03-05T23:08:16.587Z,99.90
2023-03-05T23:10:44.500Z,99.90
2023-03-05T23:13:12.533Z,99.90
2023-03-05T23:15:40.543Z,99.90
2023-03-05T23:18:09.218Z,99.90
2023-03-05T23:20:38.323Z,99.90
2023-03-05T23:23:06.331Z,99.90
2023-03-05T23:25:36.664Z,99.90
2023-03-05T23:28:05.063Z,99.90
2023-03-05T23:30:34.490Z,99.90
2023-03-05T23:33:05.936Z,99.90
2023-03-05T23:35:37.055Z,99.90
2023-03-05T23:38:06.953Z,99.90
2023-03-05T23:40:38.349Z,99.90
2023-03-05T23:43:06.284Z,99.90
2023-03-05T23:45:34.556Z,99.90
2023-03-05T23:48:02.776Z,99.90
2023-03-05T23:50:32.706Z,99.90
2023-03-05T23:53:02.217Z,99.90
2023-03-05T23:55:33.569Z,99.90
2023-03-05T23:58:03.545Z,99.90
